Terminal Aerodrome Forecast
Issued by NWS Green Bay, WI

Home | Current Version | Previous Version | Text Only | Print | Product List | Glossary On
Versions: 1 2 3 4 5 6 7 8 9 10 11 12 13 14 15 16 17 18 19 20 21 22 23 24 25 26 27 28 29 30 31 32 33 34 35
000
FTUS43 KGRB 210500
TAFGRB
TAF
KGRB 210525Z 2106/2206 35008KT P6SM VCSH BKN050
     FM211000 35009KT P6SM SCT018 BKN040
     FM211600 03012KT P6SM SCT040
     FM212300 05007KT P6SM SKC=

USA.gov is the U.S. government's official web portal to all federal, state and local government web resources and services.